createdAt,value
2022-08-20T00:02:14.450Z,72.17
2022-08-20T00:04:41.762Z,70.29
2022-08-20T00:07:09.024Z,71.75
2022-08-20T00:09:36.982Z,72.52
2022-08-20T00:12:07.531Z,72.34
2022-08-20T00:14:37.143Z,71.95
2022-08-20T00:17:05.951Z,71.39
2022-08-20T00:19:34.233Z,71.71
2022-08-20T00:22:01.466Z,73.21
2022-08-20T00:24:28.721Z,73.28
2022-08-20T00:26:56.130Z,71.07
2022-08-20T00:29:23.356Z,69.93
2022-08-20T00:31:51.102Z,71.58
2022-08-20T00:34:18.931Z,71.52
2022-08-20T00:36:46.943Z,71.06
2022-08-20T00:39:14.623Z,70.95
2022-08-20T00:41:41.967Z,69.92
2022-08-20T00:44:18.539Z,70.82
2022-08-20T00:46:47.087Z,70.71
2022-08-20T00:49:27.933Z,70.18
2022-08-20T00:52:16.559Z,70.46
2022-08-20T00:55:01.336Z,69.01
2022-08-20T00:58:48.120Z,69.75
2022-08-20T01:01:15.875Z,69.51
2022-08-20T01:03:43.720Z,68.89
2022-08-20T01:07:33.528Z,69.08
2022-08-20T01:10:19.525Z,68.96
2022-08-20T01:14:12.963Z,69.55
2022-08-20T01:16:40.699Z,69.66
2022-08-20T01:20:23.899Z,67.85
2022-08-20T01:24:06.666Z,69.91
2022-08-20T01:27:55.195Z,69.52
2022-08-20T01:31:38.510Z,69.41
2022-08-20T01:34:11.724Z,70.52
2022-08-20T01:37:54.524Z,71.12
2022-08-20T01:40:48.766Z,70.23
2022-08-20T01:44:31.556Z,68.83
2022-08-20T01:47:31.367Z,69.70
2022-08-20T01:50:18.482Z,71.63
2022-08-20T01:54:01.349Z,71.61
2022-08-20T01:56:32.180Z,70.86
2022-08-20T01:59:06.857Z,70.62
2022-08-20T02:01:46.283Z,70.55
2022-08-20T02:04:18.209Z,71.45
2022-08-20T02:06:57.064Z,69.02
2022-08-20T02:09:30.692Z,69.61
2022-08-20T02:12:00.991Z,70.85
2022-08-20T02:14:30.360Z,71.53
2022-08-20T02:16:58.857Z,71.63
2022-08-20T02:19:47.425Z,72.33
2022-08-20T02:22:53.027Z,71.14
2022-08-20T02:25:27.175Z,68.33
2022-08-20T02:28:07.826Z,68.27
2022-08-20T02:30:46.853Z,69.70
2022-08-20T02:33:17.992Z,68.93
2022-08-20T02:35:49.816Z,69.93
2022-08-20T02:38:17.539Z,69.64
2022-08-20T02:40:51.866Z,70.81
2022-08-20T02:43:20.134Z,70.46
2022-08-20T02:45:47.813Z,71.48
2022-08-20T02:48:21.297Z,72.00
2022-08-20T02:51:01.718Z,72.27
2022-08-20T02:53:33.850Z,73.17
2022-08-20T02:56:01.955Z,71.61
2022-08-20T02:58:29.239Z,71.37
2022-08-20T03:00:56.825Z,72.81
2022-08-20T03:03:24.871Z,72.59
2022-08-20T03:05:57.631Z,72.07
2022-08-20T03:08:27.172Z,73.16
2022-08-20T03:10:55.501Z,72.32
2022-08-20T03:13:24.204Z,71.73
2022-08-20T03:16:00.357Z,70.37
2022-08-20T03:18:37.481Z,70.97
2022-08-20T03:21:08.013Z,71.65
2022-08-20T03:23:40.400Z,71.69
2022-08-20T03:26:12.892Z,71.62
2022-08-20T03:28:41.710Z,72.43
2022-08-20T03:31:10.141Z,72.52
2022-08-20T03:33:52.692Z,72.46
2022-08-20T03:36:28.245Z,72.45
2022-08-20T03:39:01.457Z,72.70
2022-08-20T03:41:29.160Z,73.27
2022-08-20T03:43:56.549Z,73.17
2022-08-20T03:46:25.153Z,73.59
2022-08-20T03:48:59.981Z,74.05
2022-08-20T03:51:35.147Z,72.18
2022-08-20T03:54:20.289Z,73.37
2022-08-20T03:56:47.741Z,74.18
2022-08-20T03:59:15.407Z,74.33
2022-08-20T04:01:46.143Z,74.30
2022-08-20T04:04:15.169Z,74.16
2022-08-20T04:06:43.458Z,72.60
2022-08-20T04:09:12.338Z,71.95
2022-08-20T04:11:41.536Z,70.77
2022-08-20T04:14:11.408Z,70.82
2022-08-20T04:16:45.527Z,71.95
2022-08-20T04:19:15.158Z,72.16
2022-08-20T04:21:42.465Z,72.14
2022-08-20T04:24:22.154Z,71.32
2022-08-20T04:26:58.912Z,71.23
2022-08-20T04:29:32.174Z,71.35
2022-08-20T04:32:03.393Z,71.91
2022-08-20T04:34:35.072Z,69.92
2022-08-20T04:37:02.695Z,71.10
2022-08-20T04:39:29.958Z,71.59
2022-08-20T04:41:57.378Z,71.28
2022-08-20T04:44:24.681Z,72.17
2022-08-20T04:46:51.975Z,73.47
2022-08-20T04:49:26.209Z,73.20
2022-08-20T04:51:54.768Z,73.71
2022-08-20T04:54:22.201Z,72.85
2022-08-20T04:56:49.556Z,71.13
2022-08-20T04:59:16.801Z,69.99
2022-08-20T05:01:44.031Z,70.32
2022-08-20T05:04:11.280Z,69.49
2022-08-20T05:06:40.623Z,68.69
2022-08-20T05:09:07.927Z,69.13
2022-08-20T05:11:36.952Z,69.86
2022-08-20T05:14:09.853Z,70.41
2022-08-20T05:16:41.075Z,71.25
2022-08-20T05:19:12.592Z,71.25
2022-08-20T05:21:40.998Z,73.85
2022-08-20T05:24:10.143Z,74.50
2022-08-20T05:26:37.471Z,77.17
2022-08-20T05:29:06.840Z,77.69
2022-08-20T05:31:35.543Z,76.51
2022-08-20T05:34:11.720Z,75.08
2022-08-20T05:36:49.211Z,76.26
2022-08-20T05:39:20.375Z,74.62
2022-08-20T05:41:51.248Z,75.44
2022-08-20T05:44:19.762Z,75.12
2022-08-20T05:46:48.575Z,76.90
2022-08-20T05:49:21.764Z,78.13
2022-08-20T05:51:51.323Z,77.28
2022-08-20T05:54:18.816Z,78.26
2022-08-20T05:56:46.103Z,78.35
2022-08-20T05:59:14.106Z,77.61
2022-08-20T06:01:43.064Z,77.28
2022-08-20T06:04:28.631Z,77.11
2022-08-20T06:07:06.840Z,79.15
2022-08-20T06:09:36.213Z,78.56
2022-08-20T06:12:07.728Z,78.28
2022-08-20T06:14:35.939Z,78.45
2022-08-20T06:17:10.520Z,78.65
2022-08-20T06:19:44.177Z,74.84
2022-08-20T06:22:18.416Z,76.70
2022-08-20T06:24:50.196Z,76.93
2022-08-20T06:27:18.377Z,77.29
2022-08-20T06:29:46.099Z,76.82
2022-08-20T06:32:14.380Z,76.33
2022-08-20T06:34:49.043Z,72.97
2022-08-20T06:37:31.552Z,70.23
2022-08-20T06:40:18.337Z,74.22
2022-08-20T06:42:48.739Z,74.10
2022-08-20T06:45:25.801Z,73.53
2022-08-20T06:47:58.526Z,73.10
2022-08-20T06:50:43.218Z,72.19
2022-08-20T06:53:20.828Z,70.52
2022-08-20T06:55:54.494Z,68.35
2022-08-20T06:58:36.955Z,67.85
2022-08-20T07:01:11.197Z,66.11
2022-08-20T07:03:54.402Z,66.50
2022-08-20T07:06:27.515Z,63.05
2022-08-20T07:08:56.050Z,57.34
2022-08-20T07:11:27.829Z,56.10
2022-08-20T07:13:58.693Z,56.18
2022-08-20T07:16:27.187Z,58.14
2022-08-20T07:18:54.789Z,55.62
2022-08-20T07:21:22.039Z,54.19
2022-08-20T07:23:49.409Z,53.36
2022-08-20T07:26:18.042Z,50.90
2022-08-20T07:28:45.912Z,50.35
2022-08-20T07:31:32.172Z,50.25
2022-08-20T07:34:03.499Z,50.27
2022-08-20T07:36:31.503Z,50.46
2022-08-20T07:38:59.248Z,49.11
2022-08-20T07:41:34.037Z,48.70
2022-08-20T07:44:02.354Z,50.44
2022-08-20T07:46:31.605Z,51.12
2022-08-20T07:48:59.525Z,51.90
2022-08-20T07:51:27.571Z,52.74
2022-08-20T07:53:54.821Z,52.75
2022-08-20T07:56:24.442Z,53.63
2022-08-20T07:58:59.886Z,54.23
2022-08-20T08:01:32.111Z,53.35
2022-08-20T08:04:00.842Z,53.85
2022-08-20T08:06:31.484Z,52.33
2022-08-20T08:09:08.613Z,52.40
2022-08-20T08:11:44.965Z,50.44
2022-08-20T08:14:23.323Z,48.88
2022-08-20T08:16:54.616Z,47.31
2022-08-20T08:19:22.320Z,45.59
2022-08-20T08:21:49.875Z,44.20
2022-08-20T08:24:24.293Z,43.09
2022-08-20T08:26:53.768Z,41.40
2022-08-20T08:29:21.038Z,39.38
2022-08-20T08:31:48.464Z,38.87
2022-08-20T08:34:15.770Z,39.33
2022-08-20T08:43:31.684Z,39.07
2022-08-20T08:46:09.403Z,39.55
2022-08-20T08:48:43.753Z,39.44
2022-08-20T08:51:16.768Z,37.70
2022-08-20T08:53:54.689Z,38.10
2022-08-20T08:56:29.989Z,38.08
2022-08-20T08:59:07.673Z,36.63
2022-08-20T09:01:54.369Z,36.88
2022-08-20T09:04:37.107Z,37.60
2022-08-20T09:07:10.963Z,33.89
2022-08-20T09:09:44.142Z,33.68
2022-08-20T09:12:22.763Z,33.94
2022-08-20T09:14:51.777Z,32.94
2022-08-20T09:17:22.666Z,31.96
2022-08-20T09:19:52.220Z,32.12
2022-08-20T09:22:25.918Z,30.66
2022-08-20T09:24:53.854Z,37.51
2022-08-20T09:27:21.150Z,45.32
2022-08-20T09:29:48.623Z,47.85
2022-08-20T09:32:24.681Z,54.37
2022-08-20T09:34:56.496Z,55.91
2022-08-20T09:37:29.853Z,55.84
2022-08-20T09:39:59.698Z,63.04
2022-08-20T09:42:32.223Z,64.43
2022-08-20T09:45:00.747Z,65.77
2022-08-20T09:47:28.245Z,63.93
2022-08-20T09:49:55.621Z,64.16
2022-08-20T09:52:40.859Z,63.20
2022-08-20T09:55:34.399Z,67.17
2022-08-20T09:58:29.880Z,68.48
2022-08-20T10:00:57.345Z,68.10
2022-08-20T10:03:24.621Z,64.71
2022-08-20T10:05:51.866Z,68.96
2022-08-20T10:08:19.531Z,73.23
2022-08-20T10:10:47.031Z,72.97
2022-08-20T10:13:16.268Z,74.57
2022-08-20T10:15:44.078Z,76.68
2022-08-20T10:18:12.543Z,77.84
2022-08-20T10:20:40.816Z,78.81
2022-08-20T10:23:08.797Z,78.87
2022-08-20T10:25:36.024Z,77.88
2022-08-20T10:28:05.233Z,75.91
2022-08-20T10:30:32.928Z,74.24
2022-08-20T10:33:00.338Z,72.11
2022-08-20T10:35:28.356Z,69.60
2022-08-20T10:37:56.161Z,69.15
2022-08-20T10:40:23.711Z,64.95
2022-08-20T10:42:51.686Z,69.10
2022-08-20T10:45:25.822Z,63.08
2022-08-20T10:48:21.512Z,62.56
2022-08-20T10:50:50.684Z,64.90
2022-08-20T10:53:19.250Z,64.79
2022-08-20T10:55:46.917Z,59.62
2022-08-20T10:58:14.272Z,60.92
2022-08-20T11:00:42.321Z,62.94
2022-08-20T11:03:09.565Z,62.94
2022-08-20T11:05:37.096Z,61.57
2022-08-20T11:08:06.145Z,60.81
2022-08-20T11:10:36.627Z,61.49
2022-08-20T11:13:07.026Z,60.60
2022-08-20T11:15:42.369Z,61.06
2022-08-20T11:18:11.801Z,58.65
2022-08-20T11:20:39.589Z,61.86
2022-08-20T11:23:06.792Z,61.86
2022-08-20T11:25:34.050Z,58.73
2022-08-20T11:28:01.300Z,55.63
2022-08-20T11:30:36.241Z,57.12
2022-08-20T11:33:05.434Z,55.20
2022-08-20T11:35:49.278Z,54.32
2022-08-20T11:38:19.065Z,51.91
2022-08-20T11:40:46.981Z,50.97
2022-08-20T11:43:17.006Z,51.75
2022-08-20T11:45:51.648Z,47.36
2022-08-20T11:48:19.233Z,48.02
2022-08-20T11:50:47.433Z,48.61
2022-08-20T11:53:15.470Z,48.15
2022-08-20T11:55:44.068Z,48.00
2022-08-20T11:58:11.912Z,47.15
2022-08-20T12:00:39.426Z,46.83
2022-08-20T12:03:10.173Z,47.84
2022-08-20T12:05:41.050Z,47.03
2022-08-20T12:08:26.919Z,49.13
2022-08-20T12:11:02.528Z,47.68
2022-08-20T12:13:47.997Z,46.77
2022-08-20T12:16:19.429Z,44.66
2022-08-20T12:18:48.308Z,44.60
2022-08-20T12:21:16.707Z,43.39
2022-08-20T12:23:44.235Z,43.26
2022-08-20T12:26:11.896Z,42.97
2022-08-20T12:28:39.103Z,42.65
2022-08-20T12:31:06.636Z,42.37
2022-08-20T12:33:34.110Z,41.80
2022-08-20T12:36:04.231Z,40.95
2022-08-20T12:38:31.694Z,40.42
2022-08-20T12:40:58.888Z,41.04
2022-08-20T12:43:26.158Z,41.99
2022-08-20T12:45:53.389Z,43.95
2022-08-20T12:48:21.176Z,44.69
2022-08-20T12:50:49.958Z,43.75
2022-08-20T12:53:17.554Z,44.51
2022-08-20T12:55:46.404Z,47.10
2022-08-20T12:58:13.784Z,47.92
2022-08-20T13:00:47.849Z,47.61
2022-08-20T13:03:20.719Z,46.49
2022-08-20T13:05:49.188Z,46.28
2022-08-20T13:08:19.069Z,47.88
2022-08-20T13:10:46.865Z,48.39
2022-08-20T13:13:20.494Z,47.75
2022-08-20T13:15:51.225Z,47.40
2022-08-20T13:18:19.868Z,45.75
2022-08-20T13:20:47.647Z,45.71
2022-08-20T13:23:15.003Z,47.03
2022-08-20T13:25:42.274Z,47.67
2022-08-20T13:28:09.584Z,47.92
2022-08-20T13:30:38.784Z,48.43
2022-08-20T13:33:06.347Z,57.18
2022-08-20T13:35:34.053Z,65.02
2022-08-20T13:38:01.859Z,66.76
2022-08-20T13:40:29.304Z,67.10
2022-08-20T13:42:56.766Z,72.13
2022-08-20T13:45:25.324Z,69.84
2022-08-20T13:47:56.211Z,70.69
2022-08-20T13:50:26.267Z,71.59
2022-08-20T13:52:54.294Z,74.57
2022-08-20T13:55:27.863Z,74.36
2022-08-20T13:57:57.817Z,75.48
2022-08-20T14:00:32.321Z,78.42
2022-08-20T14:03:06.566Z,78.40
2022-08-20T14:05:39.155Z,78.31
2022-08-20T14:08:17.932Z,77.20
2022-08-20T14:10:51.403Z,78.12
2022-08-20T14:13:24.960Z,77.92
2022-08-20T14:15:53.383Z,70.68
2022-08-20T14:18:21.084Z,62.98
2022-08-20T14:20:48.798Z,61.18
2022-08-20T14:23:16.345Z,58.31
2022-08-20T14:25:49.367Z,58.62
2022-08-20T14:28:22.741Z,54.82
2022-08-20T14:30:53.220Z,49.32
2022-08-20T14:33:24.082Z,52.67
2022-08-20T14:35:53.066Z,50.76
2022-08-20T14:38:20.936Z,52.51
2022-08-20T14:40:50.203Z,54.42
2022-08-20T14:43:17.709Z,50.32
2022-08-20T14:45:44.988Z,49.43
2022-08-20T14:48:12.255Z,50.55
2022-08-20T14:50:40.500Z,48.83
2022-08-20T14:53:09.156Z,47.60
2022-08-20T14:55:38.384Z,48.85
2022-08-20T14:58:15.222Z,48.19
2022-08-20T15:00:44.085Z,47.62
2022-08-20T15:03:13.402Z,46.30
2022-08-20T15:05:40.849Z,45.06
2022-08-20T15:08:35.348Z,43.82
2022-08-20T15:11:02.819Z,44.54
2022-08-20T15:13:30.358Z,43.85
2022-08-20T15:15:57.775Z,44.44
2022-08-20T15:18:26.888Z,45.37
2022-08-20T15:20:54.245Z,47.03
2022-08-20T15:23:21.760Z,46.89
2022-08-20T15:25:48.961Z,47.31
2022-08-20T15:28:16.400Z,46.65
2022-08-20T15:30:43.665Z,47.81
2022-08-20T15:33:11.848Z,48.75
2022-08-20T15:35:39.655Z,49.76
2022-08-20T15:38:11.182Z,47.77
2022-08-20T15:40:38.606Z,47.16
2022-08-20T15:43:06.406Z,47.53
2022-08-20T15:45:35.738Z,46.54
2022-08-20T15:48:15.527Z,46.84
2022-08-20T15:51:10.743Z,46.96
2022-08-20T15:53:53.920Z,47.32
2022-08-20T15:57:03.844Z,46.61
2022-08-20T16:00:20.029Z,47.00
2022-08-20T16:03:10.795Z,46.97
2022-08-20T16:06:16.926Z,46.66
2022-08-20T16:09:32.957Z,45.94
2022-08-20T16:12:18.146Z,46.79
2022-08-20T16:14:51.015Z,45.58
2022-08-20T16:17:53.860Z,46.70
2022-08-20T16:20:48.076Z,46.49
2022-08-20T16:24:31.035Z,48.05
2022-08-20T16:28:13.606Z,48.35
2022-08-20T16:30:48.744Z,49.03
2022-08-20T16:34:34.354Z,48.17
2022-08-20T16:37:37.302Z,45.58
2022-08-20T16:41:19.515Z,46.64
2022-08-20T16:44:07.724Z,47.00
2022-08-20T16:47:50.592Z,46.44
2022-08-20T16:50:30.073Z,47.90
2022-08-20T16:54:12.908Z,48.35
2022-08-20T16:57:00.905Z,48.20
2022-08-20T17:00:45.310Z,48.39
2022-08-20T17:03:39.928Z,48.15
2022-08-20T17:07:26.771Z,47.48
2022-08-20T17:10:17.673Z,48.40
2022-08-20T17:14:00.699Z,48.80
2022-08-20T17:16:39.778Z,48.17
2022-08-20T17:19:28.723Z,48.89
2022-08-20T17:22:10.795Z,49.01
2022-08-20T17:24:38.682Z,48.88
2022-08-20T17:27:16.958Z,49.85
2022-08-20T17:29:56.712Z,49.98
2022-08-20T17:32:29.157Z,49.17
2022-08-20T17:35:01.795Z,49.60
2022-08-20T17:37:40.577Z,49.32
2022-08-20T17:40:20.178Z,50.08
2022-08-20T17:42:59.262Z,50.02
2022-08-20T17:45:44.276Z,49.66
2022-08-20T17:48:21.887Z,49.75
2022-08-20T17:50:52.272Z,50.05
2022-08-20T17:53:40.586Z,50.52
2022-08-20T17:56:27.899Z,51.28
2022-08-20T17:59:07.023Z,52.87
2022-08-20T18:01:38.307Z,53.31
2022-08-20T18:04:05.681Z,55.17
2022-08-20T18:06:42.159Z,56.28
2022-08-20T18:09:30.243Z,56.54
2022-08-20T18:12:35.990Z,57.97
2022-08-20T18:15:42.336Z,59.01
2022-08-20T18:18:57.498Z,59.89
2022-08-20T18:22:12.299Z,59.47
2022-08-20T18:25:15.219Z,60.48
2022-08-20T18:27:53.409Z,61.66
2022-08-20T18:30:25.921Z,63.34
2022-08-20T18:33:07.990Z,63.99
2022-08-20T18:35:45.884Z,64.23
2022-08-20T18:38:23.314Z,64.60
2022-08-20T18:40:55.370Z,65.64
2022-08-20T18:43:31.478Z,66.20
2022-08-20T18:46:20.895Z,66.27
2022-08-20T18:49:01.145Z,65.58
2022-08-20T18:51:49.405Z,66.29
2022-08-20T18:54:32.195Z,66.40
2022-08-20T18:57:52.586Z,68.05
2022-08-20T19:00:26.426Z,68.96
2022-08-20T19:03:17.727Z,68.88
2022-08-20T19:05:46.395Z,69.52
2022-08-20T19:08:30.445Z,70.02
2022-08-20T19:11:48.153Z,71.19
2022-08-20T19:14:44.751Z,69.76
2022-08-20T19:17:32.727Z,72.14
2022-08-20T19:20:11.824Z,70.76
2022-08-20T19:22:42.658Z,71.19
2022-08-20T19:25:30.843Z,71.36
2022-08-20T19:28:06.584Z,72.75
2022-08-20T19:30:41.638Z,72.04
2022-08-20T19:33:09.851Z,72.29
2022-08-20T19:35:41.183Z,70.91
2022-08-20T19:38:16.858Z,72.76
2022-08-20T19:40:46.237Z,72.47
2022-08-20T19:43:19.721Z,72.08
2022-08-20T19:45:56.997Z,71.75
2022-08-20T19:49:25.045Z,72.26
2022-08-20T19:52:38.827Z,73.12
2022-08-20T19:56:21.577Z,71.27
2022-08-20T20:00:06.818Z,70.78
2022-08-20T20:03:49.874Z,71.55
2022-08-20T20:07:33.018Z,71.94
2022-08-20T20:11:16.127Z,70.43
2022-08-20T20:14:58.848Z,72.25
2022-08-20T20:18:41.636Z,71.62
2022-08-20T20:22:23.853Z,71.16
2022-08-20T20:26:06.640Z,71.20
2022-08-20T20:29:49.878Z,71.12
2022-08-20T20:33:33.073Z,68.77
2022-08-20T20:37:15.994Z,67.09
2022-08-20T20:41:17.841Z,67.91
2022-08-20T20:45:01.068Z,68.56
2022-08-20T20:48:45.984Z,68.74
2022-08-20T20:51:26.068Z,67.21
2022-08-20T20:55:05.374Z,68.39
2022-08-20T20:57:37.999Z,68.84
2022-08-20T21:00:13.716Z,66.92
2022-08-20T21:02:41.507Z,68.44
2022-08-20T21:05:11.696Z,70.21
2022-08-20T21:08:14.233Z,70.19
2022-08-20T21:10:43.362Z,70.29
2022-08-20T21:13:11.682Z,70.39
2022-08-20T21:15:40.076Z,70.43
2022-08-20T21:18:09.240Z,70.51
2022-08-20T21:20:37.341Z,69.46
2022-08-20T21:23:05.408Z,70.11
2022-08-20T21:25:34.518Z,69.80
2022-08-20T21:28:02.429Z,71.93
2022-08-20T21:30:30.152Z,71.98
2022-08-20T21:32:57.648Z,72.80
2022-08-20T21:35:25.421Z,73.43
2022-08-20T21:37:52.743Z,72.45
2022-08-20T21:40:21.788Z,71.47
2022-08-20T21:42:49.463Z,73.16
2022-08-20T21:45:19.551Z,73.20
2022-08-20T21:47:48.916Z,74.07
2022-08-20T21:50:20.171Z,74.52
2022-08-20T21:52:59.871Z,73.83
2022-08-20T21:55:34.071Z,72.64
2022-08-20T21:58:05.979Z,72.19
2022-08-20T22:01:00.178Z,72.31
2022-08-20T22:03:33.665Z,73.23
2022-08-20T22:06:07.463Z,74.01
2022-08-20T22:08:35.168Z,73.58
2022-08-20T22:11:05.058Z,72.76
2022-08-20T22:13:34.234Z,72.92
2022-08-20T22:16:08.923Z,73.81
2022-08-20T22:18:37.255Z,74.36
2022-08-20T22:21:11.360Z,72.27
2022-08-20T22:23:40.141Z,71.67
2022-08-20T22:26:09.258Z,72.38
2022-08-20T22:28:37.425Z,71.36
2022-08-20T22:31:06.211Z,71.48
2022-08-20T22:33:35.162Z,70.56
2022-08-20T22:36:06.951Z,68.96
2022-08-20T22:38:34.380Z,69.19
2022-08-20T22:41:04.176Z,71.07
2022-08-20T22:43:33.643Z,72.10
2022-08-20T22:46:03.834Z,72.58
2022-08-20T22:48:31.285Z,71.76
2022-08-20T22:50:59.045Z,71.72
2022-08-20T22:53:28.075Z,71.47
2022-08-20T22:55:55.829Z,70.93
2022-08-20T22:58:31.211Z,70.83
2022-08-20T23:01:02.202Z,71.04
2022-08-20T23:03:39.518Z,70.41
2022-08-20T23:06:10.342Z,71.18
2022-08-20T23:08:39.816Z,70.41
2022-08-20T23:11:08.058Z,69.96
2022-08-20T23:13:35.485Z,71.46
2022-08-20T23:16:04.690Z,71.11
2022-08-20T23:18:32.679Z,70.81
2022-08-20T23:21:00.767Z,70.16
2022-08-20T23:23:28.332Z,70.77
2022-08-20T23:25:56.187Z,71.35
2022-08-20T23:28:26.578Z,70.85
2022-08-20T23:30:54.130Z,70.71
2022-08-20T23:33:21.669Z,70.42
2022-08-20T23:35:49.719Z,71.02
2022-08-20T23:38:17.616Z,71.24
2022-08-20T23:40:45.006Z,70.96
2022-08-20T23:43:12.229Z,70.24
2022-08-20T23:45:40.370Z,70.20
2022-08-20T23:48:09.470Z,72.23
2022-08-20T23:50:38.132Z,72.96
2022-08-20T23:53:06.193Z,71.95
2022-08-20T23:55:34.666Z,71.83
2022-08-20T23:58:02.383Z,71.33
